Time;durP1;ratioP1;P1;durP2;ratioP2;P2;SDS_P1;SDS_P2;PMS_P1;PMS_P2;Temp;Humidity;BMP_temperature;BMP_pressure;BME280_temperature;BME280_humidity;BME280_pressure;Samples;Min_cycle;Max_cycle;Signal;HPM_P1;HPM_P2
2022/01/29 00:01:25;;;;;;;10.73;8.30;;;;;;;5.81;48.51;101812.75;5130373;28;20422;-72
2022/01/29 00:03:52;;;;;;;12.02;8.10;;;;;;;5.86;48.37;101811.66;5130102;28;20401;-73
2022/01/29 00:06:19;;;;;;;13.38;8.45;;;;;;;5.75;48.59;101799.03;5129657;28;20410;-72
2022/01/29 00:08:46;;;;;;;12.40;9.35;;;;;;;5.81;48.47;101802.22;5129515;28;20512;-73
2022/01/29 00:11:16;;;;;;;9.55;7.13;;;;;;;5.92;48.36;101801.75;5129575;28;20413;-73
2022/01/29 00:13:43;;;;;;;9.73;7.00;;;;;;;5.79;48.50;101804.06;5129132;28;20459;-73
2022/01/29 00:16:12;;;;;;;28.70;22.52;;;;;;;5.79;48.58;101797.97;5093970;28;20409;-73
2022/01/29 00:21:23;;;;;;;37.42;25.90;;;;;;;5.79;48.69;101800.59;5129673;28;20431;-73
2022/01/29 00:23:50;;;;;;;28.70;20.52;;;;;;;5.75;48.89;101799.88;5129216;28;20410;-72
2022/01/29 00:26:21;;;;;;;18.13;13.80;;;;;;;5.70;49.03;101804.50;5130283;28;20977;-72
2022/01/29 00:28:48;;;;;;;58.90;41.30;;;;;;;5.79;49.02;101804.06;5112576;28;20409;-73
2022/01/29 00:31:16;;;;;;;151.00;99.65;;;;;;;5.87;48.63;101802.88;5129811;28;20933;-73
2022/01/29 00:33:43;;;;;;;35.93;24.73;;;;;;;5.96;48.76;101807.72;5130069;28;20473;-72
2022/01/29 00:36:10;;;;;;;27.33;19.35;;;;;;;5.99;48.40;101811.09;5129695;28;20409;-72
2022/01/29 00:38:37;;;;;;;82.82;55.92;;;;;;;6.17;48.15;101825.16;5130086;28;20492;-72
2022/01/29 00:41:04;;;;;;;58.23;41.33;;;;;;;6.33;47.75;101827.94;5130374;28;20508;-72
2022/01/29 00:43:31;;;;;;;173.25;116.75;;;;;;;6.25;47.96;101829.22;5130146;28;20481;-73
2022/01/29 00:45:58;;;;;;;90.57;60.53;;;;;;;6.19;47.92;101825.09;5129555;28;20801;-73
2022/01/29 00:48:27;;;;;;;36.23;24.87;;;;;;;6.28;47.86;101815.91;5111284;28;20497;-72
2022/01/29 00:50:54;;;;;;;17.90;13.82;;;;;;;6.30;47.86;101819.31;5129933;28;20406;-72
2022/01/29 00:53:21;;;;;;;12.00;8.63;;;;;;;6.44;47.48;101821.31;5129390;28;20441;-72
2022/01/29 00:55:48;;;;;;;29.45;20.67;;;;;;;6.50;46.92;101810.47;5129280;28;20501;-72
2022/01/29 00:58:15;;;;;;;25.33;18.58;;;;;;;6.48;47.32;101815.81;5129964;28;20500;-73
2022/01/29 01:00:44;;;;;;;10.07;6.85;;;;;;;6.40;47.58;101816.16;5131567;27;20414;-73
2022/01/29 01:03:11;;;;;;;18.67;14.73;;;;;;;6.42;47.68;101811.69;5133312;27;20919;-73
2022/01/29 01:05:39;;;;;;;14.85;11.35;;;;;;;6.38;47.64;101820.66;5133505;27;20410;-72
2022/01/29 01:08:07;;;;;;;10.32;7.75;;;;;;;6.44;47.45;101818.69;5133112;27;20501;-73
2022/01/29 01:10:34;;;;;;;11.45;7.55;;;;;;;6.67;47.11;101812.28;5133365;27;20405;-73
2022/01/29 01:13:01;;;;;;;7.15;5.40;;;;;;;6.54;47.55;101814.66;5133405;27;20501;-73
2022/01/29 01:15:28;;;;;;;21.80;16.03;;;;;;;6.63;47.20;101819.50;5133411;27;20413;-73
2022/01/29 01:17:55;;;;;;;15.15;11.20;;;;;;;6.68;47.26;101821.91;5133089;27;20406;-73
2022/01/29 01:20:22;;;;;;;33.60;24.17;;;;;;;6.87;46.64;101825.31;5132848;27;20941;-73
2022/01/29 01:22:50;;;;;;;11.60;8.63;;;;;;;6.83;46.92;101826.41;5132763;27;20965;-73
2022/01/29 01:25:17;;;;;;;16.02;10.80;;;;;;;6.80;46.82;101823.94;5132548;27;20902;-73
2022/01/29 01:27:44;;;;;;;35.25;24.50;;;;;;;6.77;46.62;101822.31;5133117;27;20398;-73
2022/01/29 01:30:12;;;;;;;19.92;13.30;;;;;;;6.99;46.23;101824.72;5132432;27;20405;-73
2022/01/29 01:32:39;;;;;;;17.27;12.10;;;;;;;7.02;46.06;101824.56;5132608;27;20398;-72
2022/01/29 01:35:13;;;;;;;29.60;20.77;;;;;;;7.05;46.09;101818.28;5114412;27;20788;-73
2022/01/29 01:37:46;;;;;;;19.95;13.70;;;;;;;6.92;46.25;101810.16;5115609;27;20783;-73
2022/01/29 01:40:15;;;;;;;21.42;14.88;;;;;;;6.80;46.33;101811.63;5133124;27;20410;-73
2022/01/29 01:42:42;;;;;;;6.18;4.97;;;;;;;6.92;46.18;101815.44;5132595;27;20421;-73
2022/01/29 01:45:09;;;;;;;20.88;14.25;;;;;;;7.04;45.79;101813.97;5132563;27;20488;-73
2022/01/29 01:47:36;;;;;;;15.25;10.82;;;;;;;7.10;45.74;101820.72;5132489;27;20402;-73
2022/01/29 01:50:04;;;;;;;32.72;22.75;;;;;;;7.01;45.98;101820.25;5132426;27;20441;-73
2022/01/29 01:52:31;;;;;;;19.75;14.02;;;;;;;7.03;45.93;101817.50;5132329;27;20493;-72
2022/01/29 01:54:58;;;;;;;16.60;11.43;;;;;;;7.01;46.07;101820.25;5132538;27;20425;-72
2022/01/29 01:57:27;;;;;;;34.22;22.67;;;;;;;6.84;46.49;101814.97;5132382;27;20414;-72
2022/01/29 01:59:53;;;;;;;13.43;9.75;;;;;;;6.63;47.29;101816.88;5132061;27;20494;-72
2022/01/29 02:02:21;;;;;;;10.85;8.48;;;;;;;6.81;46.88;101812.47;5132320;27;20927;-73
2022/01/29 02:04:48;;;;;;;18.58;13.40;;;;;;;6.92;46.93;101814.59;5131689;27;20795;-72
2022/01/29 02:07:16;;;;;;;10.88;8.32;;;;;;;6.77;47.15;101813.53;5132024;27;20463;-73
2022/01/29 02:09:42;;;;;;;19.03;14.73;;;;;;;6.75;46.92;101825.94;5131713;27;20405;-72
2022/01/29 02:12:11;;;;;;;9.65;7.57;;;;;;;6.72;46.67;101805.03;5131443;27;20496;-72
2022/01/29 02:14:40;;;;;;;12.52;8.95;;;;;;;6.78;46.46;101820.53;5132230;27;20410;-73
2022/01/29 02:17:08;;;;;;;12.15;10.27;;;;;;;6.67;46.44;101814.91;5132397;27;20401;-73
2022/01/29 02:19:35;;;;;;;13.55;11.73;;;;;;;6.87;45.88;101816.56;5132385;27;20402;-73
2022/01/29 02:22:05;;;;;;;6.70;5.50;;;;;;;6.91;45.96;101818.97;5131380;27;20505;-72
2022/01/29 02:24:32;;;;;;;7.70;5.20;;;;;;;6.92;45.72;101820.69;5132063;27;20667;-73
2022/01/29 02:26:59;;;;;;;7.47;6.43;;;;;;;6.92;45.89;101820.69;5131727;27;20500;-72
2022/01/29 02:29:28;;;;;;;6.05;5.25;;;;;;;6.91;45.80;101818.97;5131551;27;20978;-72
2022/01/29 02:31:56;;;;;;;7.22;5.10;;;;;;;6.84;46.08;101804.41;5131566;27;20441;-72
2022/01/29 02:34:24;;;;;;;7.43;5.40;;;;;;;7.02;45.94;101814.03;5113401;27;20485;-72
2022/01/29 02:36:52;;;;;;;7.55;5.20;;;;;;;6.84;46.59;101812.31;5113182;27;20437;-72
2022/01/29 02:39:21;;;;;;;7.38;4.85;;;;;;;6.71;46.87;101816.47;5131687;27;20480;-73
2022/01/29 02:41:48;;;;;;;6.95;5.13;;;;;;;6.64;47.19;101813.28;5131234;27;20803;-73
2022/01/29 02:44:21;;;;;;;6.22;4.68;;;;;;;6.76;46.87;101814.47;5112899;27;20493;-73
2022/01/29 02:46:52;;;;;;;6.93;5.45;;;;;;;6.71;46.77;101811.22;5131608;27;20408;-72
2022/01/29 02:49:22;;;;;;;8.05;5.40;;;;;;;6.53;47.24;101798.03;5131568;27;20463;-72
2022/01/29 02:51:51;;;;;;;7.15;5.18;;;;;;;6.30;47.95;101795.63;5131713;27;20488;-72
2022/01/29 02:54:21;;;;;;;6.83;4.90;;;;;;;6.33;47.95;101798.13;5131512;27;20413;-73
2022/01/29 02:56:48;;;;;;;6.10;4.93;;;;;;;6.28;47.98;101785.19;5130925;27;20433;-72
2022/01/29 02:59:15;;;;;;;8.17;5.60;;;;;;;6.21;48.07;101789.88;5131057;27;21008;-73
2022/01/29 03:01:43;;;;;;;6.55;5.40;;;;;;;6.22;47.92;101793.38;5112902;27;20421;-72
2022/01/29 03:04:10;;;;;;;12.95;9.60;;;;;;;5.99;48.32;101779.50;5130207;27;20907;-72
2022/01/29 03:06:37;;;;;;;10.98;8.45;;;;;;;6.04;48.37;101778.44;5131503;27;20492;-73
2022/01/29 03:09:06;;;;;;;10.48;7.80;;;;;;;5.88;48.73;101773.00;5130858;27;20862;-72
2022/01/29 03:11:34;;;;;;;9.55;6.20;;;;;;;5.83;48.79;101774.06;5130975;27;20493;-72
2022/01/29 03:14:01;;;;;;;7.63;5.93;;;;;;;5.74;49.02;101776.28;5130761;27;20423;-72
2022/01/29 03:16:28;;;;;;;8.85;7.30;;;;;;;5.60;49.27;101788.28;5130968;27;20405;-72
2022/01/29 03:18:55;;;;;;;7.47;5.88;;;;;;;5.69;49.27;101780.91;5130650;27;20848;-73
2022/01/29 03:21:22;;;;;;;8.80;5.60;;;;;;;5.57;49.64;101790.19;5130830;27;20416;-72
2022/01/29 03:23:49;;;;;;;8.18;6.13;;;;;;;5.45;49.86;101783.69;5129740;27;20425;-72
2022/01/29 03:26:16;;;;;;;7.30;5.65;;;;;;;5.51;49.76;101790.47;5130594;27;20410;-72
2022/01/29 03:28:44;;;;;;;11.45;6.43;;;;;;;5.47;49.73;101783.63;5129996;27;20417;-72
2022/01/29 03:31:11;;;;;;;9.48;6.93;;;;;;;5.29;50.29;101785.28;5130823;27;20402;-72
2022/01/29 03:33:38;;;;;;;8.68;6.05;;;;;;;5.28;50.48;101797.56;5130789;27;20489;-72
2022/01/29 03:36:06;;;;;;;126.03;87.43;;;;;;;5.28;50.42;101789.69;5130219;27;20449;-72
2022/01/29 03:38:33;;;;;;;472.13;129.43;;;;;;;5.13;50.88;101790.34;5129249;27;20413;-72
2022/01/29 03:41:00;;;;;;;21.88;19.02;;;;;;;5.13;50.94;101790.34;5130432;27;20402;-72
2022/01/29 03:43:32;;;;;;;23.67;21.25;;;;;;;5.02;51.26;101793.44;5130239;27;20425;-73
2022/01/29 03:46:00;;;;;;;16.70;14.30;;;;;;;5.17;50.63;101786.66;5130292;27;20504;-72
2022/01/29 03:48:27;;;;;;;24.73;22.00;;;;;;;5.13;50.79;101799.09;5130313;28;20493;-72
2022/01/29 03:50:54;;;;;;;39.42;33.45;;;;;;;5.20;50.55;101812.81;5130519;28;20512;-73
2022/01/29 03:53:21;;;;;;;21.35;18.88;;;;;;;5.13;50.75;101819.25;5130265;28;20500;-72
2022/01/29 03:55:48;;;;;;;19.60;15.07;;;;;;;5.13;50.67;101829.75;5130472;28;20409;-73
2022/01/29 03:58:15;;;;;;;14.67;12.33;;;;;;;5.15;50.82;101833.16;5130500;28;20402;-72
2022/01/29 04:00:42;;;;;;;23.00;18.92;;;;;;;5.12;51.05;101835.94;5129525;28;20413;-72
2022/01/29 04:03:12;;;;;;;19.13;14.52;;;;;;;5.14;50.95;101834.94;5111923;28;20425;-72
2022/01/29 04:05:39;;;;;;;14.52;12.88;;;;;;;5.12;51.13;101842.03;5130170;28;20398;-73
2022/01/29 04:08:13;;;;;;;31.50;28.25;;;;;;;5.20;50.81;101837.31;5129572;28;20417;-72
2022/01/29 04:10:41;;;;;;;13.95;11.70;;;;;;;5.14;51.11;101834.94;5130068;28;20405;-72
2022/01/29 04:13:10;;;;;;;12.50;11.20;;;;;;;5.13;50.81;101842.88;5130119;28;20922;-72
2022/01/29 04:15:37;;;;;;;21.63;17.87;;;;;;;5.10;51.31;101846.50;5129961;28;20485;-73
2022/01/29 04:18:04;;;;;;;23.85;20.08;;;;;;;5.04;51.37;101846.75;5130106;28;20969;-73
2022/01/29 04:20:33;;;;;;;26.83;22.20;;;;;;;5.05;51.67;101853.72;5129515;28;20445;-73
2022/01/29 04:23:00;;;;;;;25.42;21.65;;;;;;;5.15;51.19;101849.81;5129909;28;20506;-73
2022/01/29 04:25:27;;;;;;;25.33;19.73;;;;;;;4.99;51.66;101852.19;5130180;28;20435;-72
2022/01/29 04:27:54;;;;;;;77.10;57.08;;;;;;;5.01;51.51;101854.78;5130209;28;20408;-72
2022/01/29 04:30:28;;;;;;;30.75;24.10;;;;;;;4.90;51.96;101865.69;5129879;28;20898;-72
2022/01/29 04:32:59;;;;;;;41.40;32.40;;;;;;;4.93;51.79;101860.34;5130084;28;20434;-72
2022/01/29 04:35:26;;;;;;;92.83;69.07;;;;;;;5.01;51.61;101866.13;5114827;27;20500;-71
2022/01/29 04:37:55;;;;;;;35.15;27.00;;;;;;;4.95;51.66;101861.13;5134010;27;20406;-72
2022/01/29 04:40:22;;;;;;;41.07;31.33;;;;;;;4.93;51.85;101862.13;5134052;27;20483;-72
2022/01/29 04:42:49;;;;;;;59.15;42.92;;;;;;;4.99;51.71;101864.50;5133552;27;20951;-71
2022/01/29 04:45:16;;;;;;;39.10;34.15;;;;;;;4.87;51.98;101857.97;5115426;27;20406;-72
2022/01/29 04:47:44;;;;;;;34.42;28.23;;;;;;;4.79;52.27;101860.03;5133426;27;20496;-72
2022/01/29 04:50:11;;;;;;;23.13;19.47;;;;;;;4.72;52.19;101863.81;5133477;27;20408;-72
2022/01/29 04:52:39;;;;;;;35.67;29.75;;;;;;;4.75;52.28;101864.56;5133771;27;20416;-72
2022/01/29 04:55:09;;;;;;;42.45;37.10;;;;;;;4.71;52.44;101873.47;5133712;27;20514;-72
2022/01/29 04:57:37;;;;;;;27.02;24.35;;;;;;;4.80;52.31;101873.09;5133289;27;20401;-72
2022/01/29 05:00:07;;;;;;;25.53;21.73;;;;;;;4.76;52.27;101873.28;5115158;27;20406;-72
2022/01/29 05:02:35;;;;;;;23.17;20.63;;;;;;;4.75;52.58;101884.72;5133125;27;20433;-71
2022/01/29 05:05:03;;;;;;;9.98;8.93;;;;;;;4.81;52.34;101885.31;5133307;27;20416;-72
2022/01/29 05:07:30;;;;;;;33.38;29.88;;;;;;;4.81;52.45;101881.84;5133390;27;20413;-72
2022/01/29 05:09:57;;;;;;;18.60;16.70;;;;;;;4.69;52.84;101879.69;5133935;27;20970;-73
2022/01/29 05:12:30;;;;;;;26.90;24.20;;;;;;;4.69;52.88;101887.56;5133433;27;20402;-73
2022/01/29 05:28:37;;;;;;;14.10;12.55;;;;;;;4.83;52.62;101914.13;5117087;27;20401;-73
2022/01/29 05:31:04;;;;;;;23.60;21.30;;;;;;;4.77;52.65;101903.88;5131860;27;20406;-72
2022/01/29 05:33:31;;;;;;;21.83;19.52;;;;;;;4.84;52.71;101904.47;5130628;27;20480;-72
2022/01/29 05:35:58;;;;;;;17.25;15.23;;;;;;;4.89;52.33;101908.66;5131984;27;20409;-72
2022/01/29 05:38:26;;;;;;;12.23;10.88;;;;;;;4.78;52.83;101906.41;5132664;27;20485;-73
2022/01/29 05:40:53;;;;;;;14.00;12.50;;;;;;;4.96;52.29;101917.97;5132585;27;20807;-73
2022/01/29 05:43:20;;;;;;;13.98;12.40;;;;;;;5.05;52.47;101916.75;5131931;27;20509;-73
2022/01/29 05:45:49;;;;;;;11.73;10.40;;;;;;;5.27;51.89;101916.75;5113213;27;20486;-72
2022/01/29 05:48:16;;;;;;;13.85;12.35;;;;;;;5.37;51.16;101920.69;5132275;27;20489;-73
2022/01/29 05:50:43;;;;;;;14.63;12.13;;;;;;;5.45;51.26;101924.75;5132138;27;20402;-72
2022/01/29 05:53:10;;;;;;;13.20;9.77;;;;;;;5.52;50.92;101929.69;5132627;27;20448;-72
2022/01/29 05:55:37;;;;;;;13.97;12.57;;;;;;;5.66;50.45;101926.50;5132012;27;20530;-72
2022/01/29 05:58:04;;;;;;;17.02;14.63;;;;;;;5.86;50.05;101933.53;5130813;27;20406;-72
2022/01/29 06:00:31;;;;;;;17.27;15.05;;;;;;;6.73;48.32;101934.00;5132323;27;20416;-73
2022/01/29 06:03:04;;;;;;;20.17;16.90;;;;;;;8.03;45.39;101936.34;5132180;27;20455;-73
2022/01/29 06:05:32;;;;;;;13.05;10.95;;;;;;;9.24;42.49;101949.97;5132175;27;20485;-73
2022/01/29 06:07:59;;;;;;;21.17;18.98;;;;;;;10.55;39.75;101950.09;5131602;27;20516;-72
2022/01/29 06:10:26;;;;;;;27.85;20.08;;;;;;;11.08;38.31;101944.97;5131434;27;20424;-72
2022/01/29 06:13:05;;;;;;;12.45;11.25;;;;;;;11.99;36.72;101951.22;5112064;27;20534;-73
2022/01/29 06:15:35;;;;;;;9.32;8.38;;;;;;;13.27;34.34;101957.19;5130782;27;20922;-72
2022/01/29 06:18:03;;;;;;;9.95;8.80;;;;;;;14.03;32.63;101956.72;5131741;27;20432;-73
2022/01/29 06:20:30;;;;;;;12.13;10.23;;;;;;;14.93;31.20;101965.66;5132100;27;20405;-72
2022/01/29 06:22:58;;;;;;;14.38;12.13;;;;;;;15.93;29.66;101968.03;5109366;27;20428;-73
2022/01/29 06:25:26;;;;;;;8.88;7.97;;;;;;;16.55;28.47;101974.25;5130072;27;20433;-73
2022/01/29 06:27:53;;;;;;;11.32;9.95;;;;;;;17.19;27.40;101965.81;5111722;27;20463;-72
2022/01/29 06:30:24;;;;;;;10.45;8.95;;;;;;;18.07;26.05;101976.47;5129930;27;20515;-72
2022/01/29 06:32:51;;;;;;;10.85;9.30;;;;;;;18.62;25.55;101970.31;5131663;27;20409;-74
2022/01/29 06:35:20;;;;;;;10.77;8.68;;;;;;;18.86;24.83;101968.97;5130355;27;20454;-73
2022/01/29 06:37:47;;;;;;;10.37;9.27;;;;;;;20.08;23.84;101985.31;5131655;27;20441;-73
2022/01/29 06:40:15;;;;;;;10.77;9.70;;;;;;;20.47;22.72;101984.84;5131321;27;20436;-73
2022/01/29 06:42:42;;;;;;;11.38;10.18;;;;;;;20.91;22.43;101984.69;5122745;27;20821;-71
2022/01/29 06:45:10;;;;;;;12.50;11.20;;;;;;;22.31;20.57;101987.41;5120416;27;20906;-73
2022/01/29 06:47:37;;;;;;;13.05;11.85;;;;;;;22.43;20.24;101987.88;5131902;27;20416;-73
2022/01/29 06:50:06;;;;;;;15.45;13.85;;;;;;;22.08;20.38;101996.22;5131874;27;20410;-73
2022/01/29 06:52:35;;;;;;;14.00;12.60;;;;;;;22.21;20.29;102001.91;5130219;27;20489;-74
2022/01/29 06:55:02;;;;;;;13.63;12.23;;;;;;;22.13;20.31;102001.94;5130474;27;20494;-73
2022/01/29 06:57:29;;;;;;;13.15;11.55;;;;;;;23.75;19.13;102000.41;5111534;27;20501;-74
2022/01/29 06:59:56;;;;;;;11.13;9.57;;;;;;;24.60;18.50;102011.91;5130255;27;20441;-73
2022/01/29 07:02:22;;;;;;;16.60;15.00;;;;;;;24.39;17.96;101999.94;5128946;27;20496;-73
2022/01/29 07:04:49;;;;;;;19.40;17.80;;;;;;;25.85;17.13;102008.00;5129071;27;20422;-73
2022/01/29 07:07:16;;;;;;;16.27;14.73;;;;;;;26.36;16.58;102013.19;5129557;27;20480;-73
2022/01/29 07:09:45;;;;;;;20.38;18.17;;;;;;;26.76;16.04;102009.81;5130278;27;20434;-73
2022/01/29 07:12:12;;;;;;;22.07;19.77;;;;;;;28.61;14.55;102015.56;5130842;27;20406;-73
2022/01/29 07:14:41;;;;;;;26.63;23.90;;;;;;;28.11;14.81;102009.81;5130910;27;20401;-74
2022/01/29 07:17:13;;;;;;;24.58;22.08;;;;;;;29.30;14.03;102011.22;5112433;27;20405;-75
2022/01/29 07:19:40;;;;;;;15.93;14.50;;;;;;;29.52;13.53;102008.97;5130167;27;20402;-74
2022/01/29 07:22:08;;;;;;;8.13;7.30;;;;;;;29.56;13.42;102006.59;5110634;27;20986;-73
2022/01/29 07:24:36;;;;;;;7.97;7.18;;;;;;;30.38;13.08;102006.47;5129710;27;20426;-73
2022/01/29 07:27:07;;;;;;;7.47;6.78;;;;;;;30.37;12.88;102014.91;5130196;27;20401;-74
2022/01/29 07:29:35;;;;;;;8.60;7.73;;;;;;;30.52;12.63;102012.63;5130835;27;20477;-73
2022/01/29 07:32:03;;;;;;;8.63;7.63;;;;;;;31.49;12.00;102019.91;5129275;27;20401;-74
2022/01/29 07:34:30;;;;;;;10.40;9.40;;;;;;;32.29;11.59;102010.31;5130445;27;20408;-74
2022/01/29 07:36:58;;;;;;;10.02;9.00;;;;;;;32.09;11.39;102019.72;5130733;27;20413;-73
2022/01/29 07:39:26;;;;;;;7.80;6.80;;;;;;;31.66;11.68;102023.66;5130221;27;20440;-73
2022/01/29 07:41:54;;;;;;;7.70;7.00;;;;;;;32.12;11.26;102035.72;5130485;27;20421;-74
2022/01/29 07:44:23;;;;;;;6.20;5.60;;;;;;;31.17;11.42;102030.31;5130311;27;20516;-74
2022/01/29 07:46:50;;;;;;;6.03;5.32;;;;;;;32.07;11.26;102035.59;5130273;27;20394;-74
2022/01/29 07:49:17;;;;;;;7.10;6.40;;;;;;;32.08;11.12;102037.28;5129760;28;20508;-74
2022/01/29 07:51:44;;;;;;;7.70;7.00;;;;;;;32.61;10.71;102040.91;5111064;28;20434;-73
2022/01/29 07:54:11;;;;;;;11.57;10.48;;;;;;;31.97;10.87;102043.53;5129360;28;20445;-74
2022/01/29 07:56:38;;;;;;;9.90;8.45;;;;;;;31.42;11.22;102043.81;5128549;28;20783;-74
2022/01/29 07:59:05;;;;;;;7.20;6.50;;;;;;;30.25;11.52;102053.06;5130072;28;20413;-74
2022/01/29 08:01:33;;;;;;;9.05;6.60;;;;;;;29.90;11.63;102048.16;5130131;28;20493;-74
2022/01/29 08:04:00;;;;;;;9.40;6.80;;;;;;;30.47;11.49;102051.56;5129948;28;20421;-73
2022/01/29 08:06:29;;;;;;;5.75;5.10;;;;;;;30.91;10.82;102054.25;5129918;28;20743;-74
2022/01/29 08:08:56;;;;;;;5.38;4.30;;;;;;;30.26;11.34;102054.75;5130611;27;20405;-74
2022/01/29 08:11:24;;;;;;;7.47;6.57;;;;;;;29.77;11.72;102062.78;5135060;27;20496;-74
2022/01/29 08:13:51;;;;;;;5.85;5.28;;;;;;;31.86;10.41;102056.19;5134209;27;20492;-74
2022/01/29 08:16:18;;;;;;;12.55;10.15;;;;;;;28.98;12.04;102072.25;5134652;27;20409;-74
2022/01/29 08:18:46;;;;;;;12.15;10.32;;;;;;;29.25;11.64;102073.81;5134124;27;20412;-73
2022/01/29 08:21:13;;;;;;;15.27;13.77;;;;;;;28.83;11.93;102070.63;5134145;27;20446;-73
2022/01/29 08:23:40;;;;;;;10.70;9.63;;;;;;;29.44;11.60;102076.63;5134237;27;20462;-74
2022/01/29 08:26:07;;;;;;;6.37;5.30;;;;;;;30.16;11.20;102069.75;5133874;27;20958;-74
2022/01/29 08:28:34;;;;;;;9.07;4.20;;;;;;;30.45;10.95;102078.31;5133921;27;20493;-74
2022/01/29 08:31:01;;;;;;;10.32;7.47;;;;;;;30.43;10.91;102083.16;5134213;27;20405;-74
2022/01/29 08:33:28;;;;;;;5.28;4.25;;;;;;;30.59;10.86;102070.78;5133881;27;20402;-73
2022/01/29 08:35:57;;;;;;;9.50;4.32;;;;;;;30.62;10.87;102074.97;5133856;27;20889;-73
2022/01/29 08:38:24;;;;;;;6.33;4.20;;;;;;;29.31;12.02;102074.81;5133785;27;20402;-73
2022/01/29 08:40:52;;;;;;;7.63;4.60;;;;;;;31.61;10.41;102078.31;5134020;27;20409;-73
2022/01/29 08:43:19;;;;;;;6.13;3.90;;;;;;;30.71;10.94;102076.34;5133639;27;20826;-73
2022/01/29 08:45:47;;;;;;;9.50;6.32;;;;;;;32.96;9.68;102080.28;5133310;27;20406;-74
2022/01/29 08:48:13;;;;;;;5.93;4.70;;;;;;;33.40;9.34;102069.59;5133836;27;20487;-73
2022/01/29 08:50:41;;;;;;;9.10;5.13;;;;;;;33.65;9.07;102082.97;5133440;27;20405;-74
2022/01/29 08:53:10;;;;;;;8.47;6.03;;;;;;;34.96;8.45;102088.94;5133834;27;20463;-73
2022/01/29 08:55:37;;;;;;;8.38;5.75;;;;;;;35.27;8.19;102092.91;5133709;27;20406;-74
2022/01/29 08:58:06;;;;;;;12.57;5.78;;;;;;;35.10;8.40;102088.31;5133723;27;20579;-74
2022/01/29 09:00:33;;;;;;;10.13;6.13;;;;;;;34.66;8.53;102104.03;5133411;27;20787;-74
2022/01/29 09:03:00;;;;;;;7.47;4.93;;;;;;;35.27;8.18;102093.72;5133365;27;20410;-74
2022/01/29 09:05:27;;;;;;;6.15;4.28;;;;;;;36.12;7.67;102103.28;5114967;27;20422;-73
2022/01/29 09:07:55;;;;;;;6.03;5.50;;;;;;;35.59;7.63;102100.38;5114833;27;20497;-73
2022/01/29 09:10:26;;;;;;;14.20;5.88;;;;;;;34.88;8.10;102104.84;5133493;27;20413;-74
2022/01/29 09:12:53;;;;;;;8.38;3.80;;;;;;;34.64;8.08;102107.00;5133499;27;20393;-73
2022/01/29 09:15:20;;;;;;;10.30;5.72;;;;;;;34.32;7.90;102115.09;5115344;27;20795;-74
2022/01/29 09:17:47;;;;;;;16.08;8.15;;;;;;;33.71;8.35;102109.44;5133007;27;20492;-73
2022/01/29 09:20:14;;;;;;;9.10;5.28;;;;;;;33.07;8.62;102102.19;5131872;27;20493;-73
2022/01/29 09:22:41;;;;;;;7.90;3.95;;;;;;;32.93;8.88;102104.41;5132875;27;20406;-73
2022/01/29 09:25:09;;;;;;;8.75;4.20;;;;;;;34.10;8.00;102107.59;5114031;27;20594;-73
2022/01/29 09:27:37;;;;;;;9.88;4.05;;;;;;;33.70;8.23;102105.88;5128959;27;20435;-73
2022/01/29 09:30:05;;;;;;;7.00;3.60;;;;;;;32.18;9.29;102104.34;5131212;27;20423;-73
2022/01/29 09:32:32;;;;;;;9.02;6.15;;;;;;;33.61;8.38;102107.34;5130918;27;20496;-73
2022/01/29 09:34:59;;;;;;;8.98;6.13;;;;;;;33.43;8.50;102097.38;5130369;27;20413;-73
2022/01/29 09:37:26;;;;;;;10.13;7.45;;;;;;;33.30;8.63;102098.53;5130913;27;20489;-73
2022/01/29 09:39:53;;;;;;;6.50;4.60;;;;;;;33.60;8.51;102097.44;5132562;27;20406;-73
2022/01/29 09:42:20;;;;;;;11.20;4.43;;;;;;;34.24;8.42;102102.59;5132569;27;20410;-73
2022/01/29 09:44:52;;;;;;;10.30;4.97;;;;;;;35.49;7.69;102098.34;5133513;27;21598;-73
2022/01/29 09:47:21;;;;;;;8.13;6.67;;;;;;;36.04;7.05;102096.31;5132823;27;20537;-73
2022/01/29 09:49:48;;;;;;;9.05;7.20;;;;;;;34.79;7.73;102105.56;5132725;27;20414;-73
2022/01/29 09:52:15;;;;;;;10.55;6.57;;;;;;;34.23;8.12;102105.63;5132598;27;20401;-74
2022/01/29 09:54:46;;;;;;;7.40;5.60;;;;;;;34.54;7.90;102101.38;5132367;27;20489;-73
2022/01/29 09:57:13;;;;;;;9.45;5.65;;;;;;;31.80;9.34;102105.63;5132596;27;20505;-73
2022/01/29 09:59:40;;;;;;;6.68;4.75;;;;;;;32.99;8.84;102113.56;5132152;27;20526;-73
2022/01/29 10:02:16;;;;;;;5.72;4.50;;;;;;;34.65;7.98;102108.72;5132573;27;20410;-73
2022/01/29 10:04:50;;;;;;;6.53;4.53;;;;;;;34.72;7.74;102114.84;5132282;27;20426;-73
2022/01/29 10:07:19;;;;;;;4.47;3.70;;;;;;;31.06;9.78;102108.56;5132074;27;20891;-72
2022/01/29 10:09:46;;;;;;;6.17;4.07;;;;;;;32.84;8.92;102103.09;5132588;27;20404;-73
2022/01/29 10:12:24;;;;;;;9.27;4.13;;;;;;;33.99;8.39;102104.94;5131910;27;20417;-73
2022/01/29 10:14:54;;;;;;;8.30;4.00;;;;;;;34.31;8.11;102100.50;5131878;27;20410;-72
2022/01/29 10:17:55;;;;;;;8.65;4.85;;;;;;;34.37;8.09;102106.06;5132086;27;20416;-72
2022/01/29 10:20:23;;;;;;;8.07;4.50;;;;;;;32.99;9.02;102101.72;5028608;28;20410;-72
2022/01/29 10:22:52;;;;;;;4.47;3.03;;;;;;;34.85;7.70;102105.34;5028282;28;20501;-73
2022/01/29 10:25:21;;;;;;;4.22;3.38;;;;;;;34.45;7.93;102112.00;5076806;27;20453;-72
2022/01/29 10:28:09;;;;;;;6.55;3.90;;;;;;;30.74;9.88;102101.34;5131856;27;20402;-72
2022/01/29 10:30:38;;;;;;;6.47;4.78;;;;;;;32.03;9.35;102104.84;5131487;27;20825;-72
2022/01/29 10:33:20;;;;;;;7.63;6.27;;;;;;;31.42;9.50;102098.59;5131122;27;20779;-72
2022/01/29 10:35:49;;;;;;;6.93;4.18;;;;;;;30.99;9.67;102099.63;5131432;27;20484;-72
2022/01/29 10:38:20;;;;;;;6.63;4.73;;;;;;;31.28;9.58;102104.25;5131763;27;20494;-73
2022/01/29 10:40:47;;;;;;;6.60;5.47;;;;;;;29.56;10.90;102102.16;5131417;27;20489;-72
2022/01/29 10:43:14;;;;;;;8.75;4.70;;;;;;;31.27;9.95;102099.03;5131258;27;20497;-73
2022/01/29 10:45:44;;;;;;;5.68;4.45;;;;;;;31.42;9.54;102099.41;5103661;27;20508;-73
2022/01/29 10:48:11;;;;;;;7.20;4.10;;;;;;;30.58;9.99;102104.69;5128240;27;20409;-72
2022/01/29 10:50:39;;;;;;;4.93;3.35;;;;;;;31.11;9.78;102100.50;5125958;27;20505;-74
2022/01/29 10:53:25;;;;;;;6.43;4.82;;;;;;;29.48;10.77;102092.38;5112022;27;20402;-73
2022/01/29 10:56:05;;;;;;;5.93;4.47;;;;;;;28.27;11.62;102095.72;5112901;27;20405;-73
2022/01/29 10:58:40;;;;;;;8.13;4.37;;;;;;;29.74;10.63;102093.25;5129332;27;20543;-73
2022/01/29 11:01:17;;;;;;;6.57;4.63;;;;;;;31.24;9.64;102081.13;5128807;27;20410;-73
2022/01/29 11:03:45;;;;;;;5.57;4.75;;;;;;;30.46;9.83;102084.63;5129750;27;20433;-72
2022/01/29 11:06:16;;;;;;;5.60;4.10;;;;;;;29.48;10.50;102078.72;5128878;27;20461;-72
2022/01/29 11:08:45;;;;;;;7.47;5.45;;;;;;;29.78;10.34;102088.19;5130600;27;20412;-73
2022/01/29 11:11:13;;;;;;;5.45;4.15;;;;;;;28.68;10.64;102081.78;5131381;27;20492;-73
2022/01/29 11:13:41;;;;;;;9.50;4.83;;;;;;;27.83;11.38;102080.81;5131371;27;20482;-73
2022/01/29 11:16:09;;;;;;;6.10;3.08;;;;;;;28.25;11.40;102081.47;5131177;27;20402;-73
2022/01/29 11:18:36;;;;;;;5.30;3.40;;;;;;;28.01;11.52;102072.88;5130737;27;20528;-73
2022/01/29 11:21:04;;;;;;;6.60;4.63;;;;;;;27.30;12.01;102070.69;5130619;27;20497;-73
2022/01/29 11:23:34;;;;;;;5.60;4.90;;;;;;;28.04;11.77;102072.47;5130372;27;20440;-73
2022/01/29 11:26:02;;;;;;;11.73;5.88;;;;;;;27.75;11.70;102071.78;5130428;27;21084;-73
2022/01/29 11:28:30;;;;;;;6.18;4.85;;;;;;;25.83;12.95;102066.22;5130530;27;20417;-73
2022/01/29 11:31:20;;;;;;;6.35;4.43;;;;;;;25.86;12.74;102068.56;5130956;27;20424;-73
2022/01/29 11:34:23;;;;;;;6.32;4.40;;;;;;;26.49;12.43;102063.19;5130571;27;20491;-73
2022/01/29 11:37:04;;;;;;;4.95;3.60;;;;;;;25.88;13.07;102066.50;5077353;27;20492;-73
2022/01/29 11:39:34;;;;;;;5.93;5.22;;;;;;;24.17;14.13;102063.97;5130384;27;20484;-73
2022/01/29 11:42:29;;;;;;;10.32;6.03;;;;;;;23.42;14.78;102061.19;5130390;27;20413;-73
2022/01/29 11:44:56;;;;;;;7.38;6.40;;;;;;;22.07;15.85;102059.28;5129585;27;20426;-73